Draffenville, Kentucky
Current Conditions -  °F | °C
As of 3:15 PM on Friday 31 Oct 2014 (Local Time) from KM25 Reporting Station
Scattered Clouds Scattered Clouds  
Wind Chill: 41°   Ceiling: Unl
Heat Index: 48°   Visibility: 10mi
Dew Point: 27°   Wind: 23mph
Humidity: 43%   Direction: 340°NNW
Pressure: 30.15"   Gusts: 26mph
Location:  36.8777°N, 88.361°W
Report Text: KM25 312015Z AUTO 34020G23KT 10SM SCT060 09/M03 A3015 RMK AO2
Loading
Personal Weather Stations






























Interactive Weather Map
Tropical Storm Tracking
New forecast layout! Learn more

10-Day Weather Forecast

Advertisements
Track Severe Weather on mobile